Pink Coral — 9HPY9 — position and weather

sailwx.info

Track history (hours):
 
Tides and Currents Weather Stations Pressure Air Temp Water Temp Dewpoint Dewpoint Depression Visibility Wind Speed Wind Dir Waves Ship Positions

Pink Coral

Last reported at 2016-Aug-29 05:34 UTC. Time now 2016-Aug-29 23:29 UTC.
Position N 45°05' E 036°36'.

Length 183 m; draft 8.6 m.

Type: Tanker. MMSI: 249344000.

Date/timePositionNaut miles runAvg speedWind from/ knotsBaromVisibWave heightAir tempDewpointWater temp
2016-Aug-29 05:34N 45°05' E 036°36'2 1.3
2016-Aug-29 04:26N 45°04' E 036°34'0 0.0
2016-Aug-29 03:33N 45°04' E 036°34'0 0.0
2016-Aug-29 02:33N 45°04' E 036°34'0 0.0
2016-Aug-29 01:30N 45°04' E 036°34'0 0.0
2016-Aug-29 00:27N 45°04' E 036°34'0 0.0
2016-Aug-28 23:33N 45°04' E 036°34'0 0.0
2016-Aug-28 22:15N 45°04' E 036°34'0 0.0
2016-Aug-28 21:06N 45°04' E 036°34'0 0.0
2016-Aug-28 20:33N 45°04' E 036°34'0 0.0
2016-Aug-28 19:33N 45°04' E 036°34'0 0.0
2016-Aug-28 18:06N 45°04' E 036°35'0 0.0
2016-Aug-28 17:30N 45°04' E 036°35'0 0.0
2016-Aug-28 15:09N 45°04' E 036°35'0 0.0
2016-Aug-28 14:33N 45°04' E 036°35'0 0.0
2016-Aug-28 12:21N 45°04' E 036°35'0 0.0
2016-Aug-28 11:30N 45°04' E 036°35'0 0.0
2016-Aug-28 10:33N 45°04' E 036°34'0 0.0
2016-Aug-28 09:30N 45°04' E 036°34'3 2.9
2016-Aug-28 08:33N 45°02' E 036°35'41012.3
2016-Aug-26 23:08N 41°01' E 028°60'5 8.8
2016-Aug-26 22:33N 40°56' E 028°58'6 0.1
2016-Aug-24 18:33N 40°54' E 028°52'247 8.8
2016-Aug-23 14:33N 37°29' E 025°55'  
Track history (hours):
 
Tides and Currents Weather Stations Pressure Air Temp Water Temp Dewpoint Dewpoint Depression Visibility Wind Speed Wind Dir Waves Ship Positions

Pink Coral

Last reported at 2016-Aug-29 05:34 UTC. Time now 2016-Aug-29 23:29 UTC.
Position N 45°05' E 036°36'.

Length 183 m; draft 8.6 m.

Type: Tanker. MMSI: 249344000.

Date/timePositionNaut miles runAvg speedWind from/ knotsBaromVisibWave heightAir tempDewpointWater temp
2016-Aug-29 05:34N 45°05' E 036°36'2 1.3
2016-Aug-29 04:26N 45°04' E 036°34'0 0.0
2016-Aug-29 03:33N 45°04' E 036°34'0 0.0
2016-Aug-29 02:33N 45°04' E 036°34'0 0.0
2016-Aug-29 01:30N 45°04' E 036°34'0 0.0
2016-Aug-29 00:27N 45°04' E 036°34'0 0.0
2016-Aug-28 23:33N 45°04' E 036°34'0 0.0
2016-Aug-28 22:15N 45°04' E 036°34'0 0.0
2016-Aug-28 21:06N 45°04' E 036°34'0 0.0
2016-Aug-28 20:33N 45°04' E 036°34'0 0.0
2016-Aug-28 19:33N 45°04' E 036°34'0 0.0
2016-Aug-28 18:06N 45°04' E 036°35'0 0.0
2016-Aug-28 17:30N 45°04' E 036°35'0 0.0
2016-Aug-28 15:09N 45°04' E 036°35'0 0.0
2016-Aug-28 14:33N 45°04' E 036°35'0 0.0
2016-Aug-28 12:21N 45°04' E 036°35'0 0.0
2016-Aug-28 11:30N 45°04' E 036°35'0 0.0
2016-Aug-28 10:33N 45°04' E 036°34'0 0.0
2016-Aug-28 09:30N 45°04' E 036°34'3 2.9
2016-Aug-28 08:33N 45°02' E 036°35'41012.3
2016-Aug-26 23:08N 41°01' E 028°60'5 8.8
2016-Aug-26 22:33N 40°56' E 028°58'6 0.1
2016-Aug-24 18:33N 40°54' E 028°52'247 8.8
2016-Aug-23 14:33N 37°29' E 025°55'  

Dump ship's entire track history